Time;durP1;ratioP1;P1;durP2;ratioP2;P2;SDS_P1;SDS_P2;PMS_P1;PMS_P2;Temp;Humidity;BMP_temperature;BMP_pressure;BME280_temperature;BME280_humidity;BME280_pressure;Samples;Min_cycle;Max_cycle;Signal;HPM_P1;HPM_P2
2023/10/15 00:01:33;;;;;;;0.30;0.30;;;;;;;10.35;94.08;100503.19;5028602;28;20045;-68
2023/10/15 00:03:59;;;;;;;0.20;0.20;;;;;;;10.39;93.99;100495.97;5026291;28;20124;-69
2023/10/15 00:06:24;;;;;;;0.10;0.10;;;;;;;10.36;94.76;100487.81;5025883;28;20113;-68
2023/10/15 00:08:50;;;;;;;0.13;0.10;;;;;;;10.41;94.58;100488.31;5028171;28;20119;-68
2023/10/15 00:11:21;;;;;;;0.10;0.10;;;;;;;10.43;94.34;100483.31;5028354;28;20049;-68
2023/10/15 00:13:49;;;;;;;0.60;0.40;;;;;;;10.37;94.76;100474.00;5026298;28;20620;-69
2023/10/15 00:16:22;;;;;;;0.20;0.20;;;;;;;10.39;94.83;100474.44;5016848;28;20044;-68
2023/10/15 00:18:48;;;;;;;0.70;0.30;;;;;;;10.30;95.49;100476.56;5029740;28;20033;-68
2023/10/15 00:21:14;;;;;;;0.10;0.10;;;;;;;10.32;94.97;100476.19;5029984;28;20091;-68
2023/10/15 00:23:42;;;;;;;0.35;0.22;;;;;;;10.22;95.13;100485.63;5027017;28;20033;-68
2023/10/15 00:26:11;;;;;;;0.75;0.50;;;;;;;10.31;95.21;100485.41;5029544;28;20083;-68
2023/10/15 00:28:37;;;;;;;0.30;0.30;;;;;;;10.35;94.38;100483.56;5012881;28;20021;-68
2023/10/15 00:31:08;;;;;;;1.05;0.32;;;;;;;10.24;94.89;100488.75;5024580;28;20056;-68
2023/10/15 00:33:33;;;;;;;2.28;0.98;;;;;;;10.23;95.14;100484.50;5030282;28;20504;-68
2023/10/15 00:36:04;;;;;;;1.20;0.10;;;;;;;10.32;94.94;100493.13;5032462;28;20037;-69
2023/10/15 00:38:29;;;;;;;1.17;0.20;;;;;;;10.25;95.78;100497.59;5030032;28;20068;-68
2023/10/15 00:41:30;;;;;;;0.85;0.20;;;;;;;10.29;96.53;100498.44;5026938;28;20053;-68
2023/10/15 00:43:51;;;;;;;0.20;0.20;;;;;;;10.36;96.41;100510.13;5031679;28;20056;-69
2023/10/15 00:46:18;;;;;;;2.78;0.20;;;;;;;10.45;95.44;100497.19;5029261;28;20037;-68
2023/10/15 00:48:45;;;;;;;0.95;0.35;;;;;;;10.43;95.93;100486.00;5029039;28;20108;-68
2023/10/15 00:51:16;;;;;;;0.13;0.13;;;;;;;10.39;95.98;100485.19;5029557;28;20030;-69
2023/10/15 00:53:53;;;;;;;1.42;0.40;;;;;;;10.42;96.37;100470.22;5033796;28;20080;-68
2023/10/15 00:56:22;;;;;;;0.20;0.20;;;;;;;10.45;96.78;100469.53;5031080;28;20025;-66
2023/10/15 01:03:52;;;;;;;3.30;0.60;;;;;;;10.48;96.23;100491.13;5029511;28;20037;-68
2023/10/15 01:08:51;;;;;;;0.57;0.50;;;;;;;10.43;96.86;100488.69;5038073;28;20037;-69
2023/10/15 01:11:20;;;;;;;0.57;0.20;;;;;;;10.41;96.83;100496.38;5013441;28;20036;-68
2023/10/15 01:13:46;;;;;;;2.10;0.40;;;;;;;10.38;97.11;100507.06;5010881;28;20212;-68
2023/10/15 01:16:17;;;;;;;0.30;0.30;;;;;;;10.38;97.64;100501.69;5030702;28;20061;-68
2023/10/15 01:18:43;;;;;;;;;;;;;;;10.39;97.06;100509.44;5024568;28;20032;-67
2023/10/15 01:21:16;;;;;;;0.40;0.30;;;;;;;10.32;97.86;100498.50;5028201;28;19913;-69
2023/10/15 01:26:13;;;;;;;0.30;0.30;;;;;;;10.38;97.90;100496.28;5024658;28;20108;-69
2023/10/15 01:28:40;;;;;;;0.20;0.20;;;;;;;10.42;97.19;100505.22;5028137;28;20049;-69
2023/10/15 01:31:06;;;;;;;0.30;0.30;;;;;;;10.43;97.62;100504.09;5011959;28;20037;-68
2023/10/15 01:33:53;;;;;;;2.13;0.70;;;;;;;10.50;97.38;100496.94;5023338;28;20033;-68
2023/10/15 01:36:22;;;;;;;1.58;1.02;;;;;;;10.49;97.55;100498.03;5023729;28;20037;-68
2023/10/15 01:38:57;;;;;;;1.00;0.63;;;;;;;10.50;96.98;100498.84;5031543;28;20160;-68
2023/10/15 01:41:25;;;;;;;2.10;0.52;;;;;;;10.52;97.01;100501.94;5030492;28;20037;-67
2023/10/15 01:43:56;;;;;;;0.30;0.30;;;;;;;10.35;97.40;100513.97;5027404;28;20497;-67
2023/10/15 01:49:33;;;;;;;0.25;0.17;;;;;;;10.38;98.17;100502.47;5012900;28;20057;-68
2023/10/15 01:52:24;;;;;;;0.38;0.30;;;;;;;10.33;98.18;100499.28;5025721;28;20168;-68
2023/10/15 01:54:49;;;;;;;0.98;0.38;;;;;;;10.27;98.32;100496.13;5036133;28;20052;-69
2023/10/15 01:57:15;;;;;;;0.93;0.70;;;;;;;10.41;97.43;100491.00;5026661;28;20033;-68
2023/10/15 02:00:03;;;;;;;0.30;0.20;;;;;;;10.28;97.61;100476.13;5030373;28;20033;-68
2023/10/15 02:02:29;;;;;;;1.05;0.28;;;;;;;10.39;97.31;100490.59;5026325;28;20057;-68
2023/10/15 02:04:57;;;;;;;0.50;0.30;;;;;;;10.33;97.57;100497.38;5027330;28;20069;-69
2023/10/15 02:07:23;;;;;;;0.10;0.10;;;;;;;10.34;97.52;100509.69;5023108;28;20033;-67
2023/10/15 02:09:52;;;;;;;2.97;0.55;;;;;;;10.39;96.74;100517.50;5032044;28;20083;-68
2023/10/15 02:12:18;;;;;;;0.17;0.17;;;;;;;10.28;96.98;100502.28;5026425;28;20509;-68
2023/10/15 02:14:51;;;;;;;1.40;0.45;;;;;;;10.26;97.54;100512.63;5024245;28;20509;-68
2023/10/15 02:17:19;;;;;;;0.60;0.28;;;;;;;10.40;96.67;100513.66;5031694;28;20045;-69
2023/10/15 02:19:47;;;;;;;0.65;0.20;;;;;;;10.21;96.31;100510.19;5027316;28;20021;-68
2023/10/15 02:22:13;;;;;;;0.30;0.25;;;;;;;10.06;97.17;100497.59;5028917;28;20036;-68
2023/10/15 02:24:47;;;;;;;0.65;0.25;;;;;;;9.90;97.91;100482.31;5030102;28;20371;-68
2023/10/15 02:27:24;;;;;;;0.38;0.20;;;;;;;10.07;97.13;100489.16;5030730;28;20029;-68
2023/10/15 02:29:53;;;;;;;0.20;0.20;;;;;;;9.96;97.00;100478.19;5008732;28;20087;-69
2023/10/15 02:34:52;;;;;;;0.40;0.40;;;;;;;9.97;96.62;100482.44;5028118;28;20029;-68
2023/10/15 02:37:18;;;;;;;0.47;0.30;;;;;;;9.96;97.01;100482.78;5028226;28;20108;-68
2023/10/15 02:39:50;;;;;;;0.55;0.30;;;;;;;10.04;96.07;100495.25;5007503;28;20470;-68
2023/10/15 02:42:20;;;;;;;1.00;0.20;;;;;;;10.01;96.01;100496.72;5029618;28;20057;-69
2023/10/15 02:44:50;;;;;;;1.20;0.30;;;;;;;9.95;95.92;100481.22;5026905;28;20037;-69
2023/10/15 02:47:19;;;;;;;1.25;0.47;;;;;;;9.80;96.23;100485.56;5028510;28;20033;-68
2023/10/15 02:49:51;;;;;;;0.73;0.43;;;;;;;9.83;96.58;100481.38;5024752;28;20037;-68
2023/10/15 02:52:19;;;;;;;0.68;0.52;;;;;;;9.88;96.33;100478.41;5027724;28;20095;-68
2023/10/15 02:54:47;;;;;;;0.20;0.15;;;;;;;9.97;95.78;100487.03;5030197;28;20037;-68
2023/10/15 02:57:17;;;;;;;0.10;0.10;;;;;;;9.96;95.48;100485.47;5029873;28;20091;-69
2023/10/15 02:59:52;;;;;;;0.20;0.20;;;;;;;9.85;95.51;100474.50;5026248;28;20050;-68
2023/10/15 03:02:24;;;;;;;0.30;0.30;;;;;;;9.80;95.98;100471.31;5029430;28;20080;-68
2023/10/15 03:04:54;;;;;;;0.55;0.30;;;;;;;9.88;96.02;100475.72;5025038;28;20057;-68
2023/10/15 03:07:26;;;;;;;0.40;0.20;;;;;;;9.84;95.74;100474.84;5028034;28;20030;-69
2023/10/15 03:09:56;;;;;;;;;;;;;;;9.88;95.64;100481.09;5021924;28;20517;-69
2023/10/15 03:12:23;;;;;;;0.67;0.20;;;;;;;9.91;95.50;100504.59;5030364;28;19979;-68
2023/10/15 03:14:49;;;;;;;0.20;0.20;;;;;;;9.97;94.88;100511.22;5027362;28;20036;-69
2023/10/15 03:17:24;;;;;;;0.30;0.30;;;;;;;9.93;95.82;100513.06;5029082;28;20393;-69
2023/10/15 03:19:55;;;;;;;0.47;0.30;;;;;;;9.97;95.80;100514.72;5021853;28;20805;-68
2023/10/15 03:22:24;;;;;;;0.60;0.35;;;;;;;9.94;95.40;100504.66;5024761;28;20041;-68
2023/10/15 03:24:53;;;;;;;4.50;0.30;;;;;;;9.91;95.47;100496.53;5028046;28;20033;-69
2023/10/15 03:27:26;;;;;;;0.80;0.55;;;;;;;9.86;95.85;100486.81;5029967;28;20113;-68
2023/10/15 03:29:51;;;;;;;0.22;0.20;;;;;;;9.80;95.94;100495.53;5030116;28;20033;-69
2023/10/15 03:32:17;;;;;;;0.20;0.20;;;;;;;9.75;96.63;100493.91;5030200;28;20417;-68
2023/10/15 03:34:47;;;;;;;0.30;0.20;;;;;;;9.66;96.44;100492.53;5030433;28;20401;-67
2023/10/15 03:37:14;;;;;;;3.10;0.40;;;;;;;9.78;96.62;100485.13;5028464;28;20033;-68
2023/10/15 03:44:44;;;;;;;1.50;0.80;;;;;;;9.85;96.27;100514.84;5027480;28;20710;-68
2023/10/15 03:47:14;;;;;;;0.68;0.30;;;;;;;9.93;95.51;100518.44;5022917;28;20052;-68
2023/10/15 03:49:40;;;;;;;0.60;0.30;;;;;;;9.93;95.31;100545.34;5029549;28;20033;-68
2023/10/15 03:52:14;;;;;;;1.35;0.25;;;;;;;9.93;95.53;100539.97;5030911;28;20022;-67
2023/10/15 03:54:39;;;;;;;0.82;0.50;;;;;;;9.78;96.67;100548.88;5033143;28;20505;-68
2023/10/15 03:57:06;;;;;;;0.20;0.20;;;;;;;9.91;96.17;100558.41;5028481;28;20064;-68
2023/10/15 03:59:53;;;;;;;0.68;0.30;;;;;;;9.88;95.96;100561.78;5032670;28;20029;-68
2023/10/15 04:02:45;;;;;;;3.63;0.40;;;;;;;9.96;96.36;100561.59;5030181;28;20029;-69
2023/10/15 04:05:14;;;;;;;1.17;0.30;;;;;;;9.93;96.25;100551.50;5026725;28;20037;-68
2023/10/15 04:07:47;;;;;;;0.15;0.15;;;;;;;9.87;97.09;100539.47;5028549;28;20032;-68
2023/10/15 04:10:14;;;;;;;0.55;0.50;;;;;;;9.86;96.45;100529.88;5024133;28;20391;-68
2023/10/15 04:12:43;;;;;;;1.17;0.43;;;;;;;9.83;96.95;100535.16;5026352;28;20025;-68
2023/10/15 04:15:14;;;;;;;0.30;0.30;;;;;;;9.81;96.45;100519.38;5025968;28;20144;-67
2023/10/15 04:17:42;;;;;;;2.42;0.70;;;;;;;9.76;96.52;100492.75;5026066;28;20033;-69
2023/10/15 04:20:08;;;;;;;2.03;0.35;;;;;;;9.74;96.49;100486.97;5031003;28;20099;-68
2023/10/15 04:22:39;;;;;;;0.55;0.30;;;;;;;9.70;96.10;100521.06;5029832;28;20026;-67
2023/10/15 04:25:06;;;;;;;0.68;0.52;;;;;;;9.75;95.83;100506.56;5029581;28;20068;-68
2023/10/15 04:27:35;;;;;;;1.73;0.57;;;;;;;9.63;96.01;100512.84;5028833;28;20494;-68
2023/10/15 04:30:00;;;;;;;0.40;0.20;;;;;;;9.51;96.40;100518.34;5029776;28;20029;-68
2023/10/15 04:32:28;;;;;;;0.20;0.20;;;;;;;9.54;95.89;100516.88;5015193;28;20611;-68
2023/10/15 04:35:01;;;;;;;0.57;0.38;;;;;;;9.45;96.30;100506.28;5028547;28;20049;-68
2023/10/15 04:37:29;;;;;;;0.75;0.10;;;;;;;9.39;96.21;100488.13;5029471;28;20440;-69
2023/10/15 04:39:55;;;;;;;0.68;0.30;;;;;;;9.38;97.18;100486.56;5031687;28;20045;-69
2023/10/15 04:42:24;;;;;;;0.40;0.20;;;;;;;9.32;96.65;100485.25;5030424;28;20030;-68
2023/10/15 04:44:53;;;;;;;0.70;0.22;;;;;;;9.26;96.52;100487.44;5029744;28;20029;-68
2023/10/15 04:47:27;;;;;;;0.10;0.10;;;;;;;9.38;96.23;100487.34;5030231;28;20029;-68
2023/10/15 04:49:57;;;;;;;0.85;0.20;;;;;;;9.39;96.63;100506.94;5032662;28;20086;-68
2023/10/15 04:52:24;;;;;;;0.10;0.10;;;;;;;9.39;96.19;100512.31;5028796;28;20079;-68
2023/10/15 04:54:55;;;;;;;0.30;0.30;;;;;;;9.46;96.58;100504.41;5030320;28;20029;-68
2023/10/15 04:57:22;;;;;;;0.30;0.22;;;;;;;9.30;96.83;100501.75;5028869;28;20124;-65
2023/10/15 04:59:47;;;;;;;0.20;0.20;;;;;;;9.39;96.83;100496.19;5028003;28;20033;-68
2023/10/15 05:02:13;;;;;;;1.65;0.30;;;;;;;9.41;96.50;100497.38;5028559;28;20417;-68
2023/10/15 05:04:38;;;;;;;0.20;0.20;;;;;;;9.44;96.61;100485.16;5023803;28;20029;-68
2023/10/15 05:07:04;;;;;;;0.73;0.40;;;;;;;9.44;97.05;100480.56;5027643;28;20060;-69
2023/10/15 05:09:31;;;;;;;0.20;0.20;;;;;;;9.40;96.55;100486.97;5023499;28;20445;-69
2023/10/15 05:11:59;;;;;;;3.20;0.30;;;;;;;9.35;97.19;100492.63;5030639;28;20098;-68
2023/10/15 05:14:24;;;;;;;0.55;0.13;;;;;;;9.45;96.80;100497.44;5029234;28;20489;-68
2023/10/15 05:16:50;;;;;;;1.30;0.20;;;;;;;9.47;97.35;100511.31;5031858;28;20095;-69
2023/10/15 05:19:19;;;;;;;1.25;0.30;;;;;;;9.57;97.11;100524.22;5031557;28;20076;-70
2023/10/15 05:21:46;;;;;;;0.40;0.30;;;;;;;9.52;97.24;100524.50;5026907;28;20033;-68
2023/10/15 05:24:18;;;;;;;0.35;0.22;;;;;;;9.58;97.16;100536.53;5031169;28;20036;-69
2023/10/15 05:26:50;;;;;;;0.28;0.28;;;;;;;9.59;96.96;100535.41;5028435;28;20481;-68
2023/10/15 05:29:15;;;;;;;1.55;0.30;;;;;;;9.62;97.15;100546.22;5015330;28;20128;-68
2023/10/15 05:31:42;;;;;;;0.88;0.15;;;;;;;9.64;97.71;100554.72;5029254;28;20108;-68
2023/10/15 05:34:07;;;;;;;0.20;0.20;;;;;;;9.68;97.53;100563.66;5026223;28;20402;-68
2023/10/15 05:36:35;;;;;;;1.55;0.25;;;;;;;9.69;97.55;100565.22;5031746;28;20029;-69
2023/10/15 05:39:08;;;;;;;0.20;0.20;;;;;;;9.61;96.41;100549.28;5029559;28;20041;-68
2023/10/15 05:41:34;;;;;;;0.20;0.20;;;;;;;9.46;96.49;100526.69;5024193;28;20481;-68
2023/10/15 05:44:00;;;;;;;1.00;1.00;;;;;;;9.47;97.54;100524.75;5024671;28;20021;-69
2023/10/15 05:46:27;;;;;;;0.40;0.30;;;;;;;9.38;97.99;100533.03;5025417;28;20420;-68
2023/10/15 05:48:55;;;;;;;0.90;0.25;;;;;;;9.36;98.00;100537.19;5028409;28;20029;-68
2023/10/15 05:51:21;;;;;;;1.85;0.63;;;;;;;9.35;98.58;100544.44;5025984;28;20029;-67
2023/10/15 05:53:47;;;;;;;0.30;0.30;;;;;;;9.28;98.75;100540.81;5025081;28;20497;-67
2023/10/15 05:56:13;;;;;;;0.20;0.20;;;;;;;9.34;99.06;100537.53;5027761;28;20037;-68
2023/10/15 05:58:41;;;;;;;0.40;0.40;;;;;;;9.29;98.47;100539.72;5027472;28;20578;-68
2023/10/15 06:01:07;;;;;;;0.20;0.20;;;;;;;9.28;99.24;100548.88;5031025;28;20510;-68
2023/10/15 06:03:33;;;;;;;0.40;0.30;;;;;;;9.38;99.18;100538.41;5040491;28;20116;-68
2023/10/15 06:05:59;;;;;;;0.28;0.28;;;;;;;9.44;98.52;100542.38;5027219;28;20378;-67
2023/10/15 06:08:25;;;;;;;0.50;0.40;;;;;;;9.48;98.71;100537.88;5027497;28;20040;-68
2023/10/15 06:10:51;;;;;;;0.20;0.20;;;;;;;9.42;98.28;100547.31;5029175;28;20045;-68
2023/10/15 06:13:18;;;;;;;0.68;0.57;;;;;;;9.40;98.72;100536.13;5025193;28;20051;-68
2023/10/15 06:15:43;;;;;;;0.43;0.20;;;;;;;9.55;98.03;100539.91;5029891;28;20107;-67
2023/10/15 06:18:11;;;;;;;0.68;0.20;;;;;;;9.49;97.81;100547.47;5032118;28;20088;-68
2023/10/15 06:20:37;;;;;;;1.85;0.20;;;;;;;9.45;97.94;100560.06;5027658;28;20060;-68
2023/10/15 06:23:07;;;;;;;0.10;0.10;;;;;;;9.46;97.60;100544.72;5028101;28;20030;-68
2023/10/15 06:25:35;;;;;;;0.25;0.25;;;;;;;9.49;97.45;100544.00;5024864;28;20037;-68
2023/10/15 06:28:01;;;;;;;0.25;0.25;;;;;;;9.43;97.65;100548.88;5027069;28;20135;-69
2023/10/15 06:30:27;;;;;;;0.80;0.60;;;;;;;9.40;97.61;100548.78;5026176;28;20095;-69
2023/10/15 06:32:52;;;;;;;0.20;0.20;;;;;;;9.23;98.06;100538.41;5024784;28;20033;-70
2023/10/15 06:35:22;;;;;;;0.30;0.30;;;;;;;9.30;98.10;100552.00;5013281;28;20497;-69
2023/10/15 06:37:50;;;;;;;0.38;0.38;;;;;;;9.27;97.49;100563.47;5045203;28;20032;-69
2023/10/15 06:40:16;;;;;;;0.20;0.20;;;;;;;9.20;98.36;100561.38;5028878;28;20108;-69
2023/10/15 06:42:46;;;;;;;0.30;0.30;;;;;;;9.22;98.23;100561.00;5026251;28;20565;-68
2023/10/15 06:45:18;;;;;;;0.20;0.20;;;;;;;9.33;98.37;100580.88;5023002;28;20040;-68
2023/10/15 06:47:45;;;;;;;1.17;0.30;;;;;;;9.45;98.42;100578.06;5024900;28;20029;-69
2023/10/15 06:50:11;;;;;;;1.60;0.43;;;;;;;9.46;97.51;100577.75;5029517;28;20036;-68
2023/10/15 06:52:40;;;;;;;2.00;0.38;;;;;;;9.48;97.51;100574.72;5023992;28;20489;-68
2023/10/15 06:55:07;;;;;;;0.60;0.50;;;;;;;9.61;97.80;100582.31;5026413;28;20037;-67
2023/10/15 06:57:33;;;;;;;0.28;0.22;;;;;;;9.56;97.81;100573.75;5025212;28;20025;-68
2023/10/15 06:59:59;;;;;;;1.23;0.30;;;;;;;9.44;98.47;100576.53;5027426;28;20140;-68
2023/10/15 07:02:28;;;;;;;0.20;0.20;;;;;;;9.49;98.77;100585.09;5026511;28;20149;-68
2023/10/15 07:04:56;;;;;;;0.10;0.10;;;;;;;9.66;97.70;100587.41;5026486;28;20095;-68
2023/10/15 07:07:22;;;;;;;2.10;0.22;;;;;;;9.60;97.80;100586.13;5025891;28;20072;-67
2023/10/15 07:09:48;;;;;;;0.20;0.20;;;;;;;9.46;97.33;100601.94;5024490;28;20049;-68
2023/10/15 07:12:14;;;;;;;0.30;0.30;;;;;;;9.44;97.92;100606.88;5029671;28;20033;-68
2023/10/15 07:14:39;;;;;;;0.20;0.20;;;;;;;9.40;98.40;100602.53;5025646;28;20044;-69
2023/10/15 07:17:05;;;;;;;2.83;1.50;;;;;;;9.47;98.20;100608.06;5028778;28;20041;-68
2023/10/15 07:19:30;;;;;;;0.82;0.35;;;;;;;9.56;97.83;100614.81;5028443;28;20040;-68
2023/10/15 07:21:56;;;;;;;0.68;0.40;;;;;;;9.60;97.80;100617.63;5022584;28;20038;-68
2023/10/15 07:24:22;;;;;;;0.38;0.38;;;;;;;9.65;98.73;100636.94;5026541;28;20037;-67
2023/10/15 07:26:48;;;;;;;0.30;0.30;;;;;;;9.87;99.63;100628.22;5027551;28;20037;-68
2023/10/15 07:29:13;;;;;;;0.28;0.28;;;;;;;10.12;99.15;100636.13;5024716;28;20049;-68
2023/10/15 07:31:39;;;;;;;0.20;0.20;;;;;;;10.30;98.47;100645.34;5028182;28;20112;-69
2023/10/15 07:34:05;;;;;;;0.52;0.45;;;;;;;10.36;98.78;100644.69;5023535;28;20678;-67
2023/10/15 07:36:32;;;;;;;2.35;0.60;;;;;;;10.32;97.61;100645.75;5027472;28;20390;-69
2023/10/15 07:38:57;;;;;;;0.20;0.20;;;;;;;10.15;97.60;100648.84;5021592;28;20383;-67
2023/10/15 07:41:23;;;;;;;2.83;0.40;;;;;;;10.05;98.01;100650.16;5026290;28;20026;-69
2023/10/15 07:43:48;;;;;;;0.75;0.40;;;;;;;10.04;97.70;100648.59;5027022;28;20124;-69
2023/10/15 07:46:14;;;;;;;0.20;0.20;;;;;;;9.99;98.00;100651.53;5028190;28;20036;-68
2023/10/15 07:48:40;;;;;;;1.38;0.57;;;;;;;10.04;97.52;100653.97;5027314;28;20037;-68
2023/10/15 07:51:07;;;;;;;0.30;0.30;;;;;;;9.99;97.83;100656.94;5016884;28;20136;-69
2023/10/15 07:53:33;;;;;;;0.93;0.50;;;;;;;9.93;98.01;100647.56;5026909;28;20458;-68
2023/10/15 07:55:58;;;;;;;3.42;0.25;;;;;;;10.01;97.70;100646.59;5031844;28;20060;-68
2023/10/15 07:58:23;;;;;;;0.95;0.60;;;;;;;10.07;97.60;100652.47;5022540;28;20045;-68
2023/10/15 08:00:53;;;;;;;2.30;0.50;;;;;;;10.07;97.52;100658.66;5029635;28;20026;-69
2023/10/15 08:03:19;;;;;;;0.30;0.30;;;;;;;10.02;96.78;100656.25;5025759;28;20068;-68
2023/10/15 08:05:46;;;;;;;3.30;0.25;;;;;;;10.02;97.09;100656.25;5026210;28;20049;-68
2023/10/15 08:08:11;;;;;;;0.30;0.30;;;;;;;10.05;97.29;100655.53;5027742;28;20041;-68
2023/10/15 08:10:38;;;;;;;0.20;0.20;;;;;;;10.09;97.29;100667.16;5028238;28;20032;-68
2023/10/15 08:13:04;;;;;;;1.08;0.30;;;;;;;10.16;96.54;100666.56;5027608;28;20041;-68
2023/10/15 08:15:33;;;;;;;0.35;0.25;;;;;;;10.13;95.69;100669.94;5023216;28;20030;-66
2023/10/15 08:18:01;;;;;;;0.52;0.28;;;;;;;9.87;97.38;100675.88;5027873;28;20667;-69
2023/10/15 08:20:27;;;;;;;0.45;0.30;;;;;;;9.83;97.67;100680.41;5027419;28;20566;-69
2023/10/15 08:22:53;;;;;;;0.75;0.38;;;;;;;9.88;97.10;100688.19;5027661;28;20025;-68
2023/10/15 08:25:21;;;;;;;0.32;0.32;;;;;;;9.86;97.40;100701.19;5027562;28;20591;-69
2023/10/15 08:27:47;;;;;;;3.47;0.47;;;;;;;9.90;96.70;100712.81;5025707;28;20513;-68
2023/10/15 08:30:14;;;;;;;0.65;0.30;;;;;;;9.96;96.76;100712.22;5025856;28;20029;-68
2023/10/15 08:32:41;;;;;;;0.15;0.15;;;;;;;10.00;96.34;100712.31;5025932;28;20025;-68
2023/10/15 08:35:09;;;;;;;0.38;0.30;;;;;;;9.93;96.05;100704.03;5030429;28;20025;-68
2023/10/15 08:37:35;;;;;;;0.25;0.25;;;;;;;9.87;95.96;100721.59;5032894;28;20055;-67
2023/10/15 08:40:05;;;;;;;0.80;0.28;;;;;;;9.91;95.74;100733.22;5033190;28;20505;-68
2023/10/15 08:42:37;;;;;;;0.98;0.32;;;;;;;10.06;96.11;100734.34;5027835;28;20052;-68
2023/10/15 08:45:07;;;;;;;0.30;0.30;;;;;;;10.09;95.80;100731.72;5028300;28;20033;-67
2023/10/15 08:47:33;;;;;;;0.55;0.40;;;;;;;10.21;94.82;100730.88;5045257;28;20092;-67
2023/10/15 08:50:00;;;;;;;1.65;0.50;;;;;;;10.35;95.04;100733.88;5026276;28;20048;-68
2023/10/15 08:52:27;;;;;;;0.28;0.20;;;;;;;10.51;95.63;100718.47;5045978;28;20029;-68
2023/10/15 08:54:59;;;;;;;0.20;0.20;;;;;;;10.71;95.21;100712.75;5026186;28;20034;-68
2023/10/15 08:57:25;;;;;;;0.30;0.30;;;;;;;10.80;94.63;100717.94;5029881;28;20040;-67
2023/10/15 08:59:51;;;;;;;0.20;0.20;;;;;;;10.78;93.89;100737.13;5028071;28;20033;-68
2023/10/15 09:02:18;;;;;;;0.28;0.28;;;;;;;10.79;93.52;100733.31;5027352;28;20378;-68
2023/10/15 09:04:45;;;;;;;0.10;0.10;;;;;;;10.92;93.54;100749.34;5027501;28;20034;-67
2023/10/15 09:07:13;;;;;;;0.17;0.17;;;;;;;10.97;93.35;100747.16;5028308;28;20037;-68
2023/10/15 09:09:39;;;;;;;0.20;0.20;;;;;;;11.17;93.17;100737.16;5029398;28;20029;-69
2023/10/15 09:12:06;;;;;;;0.52;0.40;;;;;;;11.01;93.56;100755.31;5029770;28;20030;-68
2023/10/15 09:14:38;;;;;;;0.25;0.25;;;;;;;10.99;92.62;100746.78;5023554;28;20101;-68
2023/10/15 09:17:09;;;;;;;1.33;0.30;;;;;;;10.88;92.59;100744.66;5014490;28;20041;-68
2023/10/15 09:19:34;;;;;;;0.20;0.20;;;;;;;10.74;92.33;100740.91;5025489;28;20033;-68
2023/10/15 09:22:00;;;;;;;0.20;0.20;;;;;;;10.61;93.03;100742.13;5020678;28;20021;-68
2023/10/15 09:24:27;;;;;;;0.10;0.10;;;;;;;10.51;93.02;100732.72;5029316;28;20037;-68
2023/10/15 09:26:53;;;;;;;0.20;0.20;;;;;;;10.64;94.02;100731.47;5025629;28;20035;-69
2023/10/15 09:29:19;;;;;;;0.10;0.10;;;;;;;10.56;93.22;100745.91;5032067;28;20038;-67
2023/10/15 09:31:45;;;;;;;2.47;0.50;;;;;;;10.59;93.61;100745.19;5023555;28;20028;-68
2023/10/15 09:34:14;;;;;;;0.22;0.20;;;;;;;10.53;93.24;100757.38;5031724;28;20113;-69
2023/10/15 09:36:39;;;;;;;0.28;0.20;;;;;;;10.55;93.99;100762.44;5031117;28;20041;-68
2023/10/15 09:39:12;;;;;;;1.17;0.60;;;;;;;10.57;94.23;100774.38;5025775;28;20026;-67
2023/10/15 09:41:39;;;;;;;0.10;0.10;;;;;;;10.70;94.92;100786.59;5028352;28;20029;-68
2023/10/15 09:44:06;;;;;;;1.35;0.30;;;;;;;10.97;93.63;100792.97;5031839;28;20045;-68
2023/10/15 09:46:33;;;;;;;0.25;0.25;;;;;;;11.06;93.09;100800.81;5028509;28;20440;-68
2023/10/15 09:49:04;;;;;;;3.55;0.30;;;;;;;11.02;92.49;100811.53;5022765;28;20061;-68
2023/10/15 09:51:32;;;;;;;1.23;0.30;;;;;;;11.01;93.22;100814.59;5029046;28;20100;-67
2023/10/15 09:53:59;;;;;;;0.30;0.30;;;;;;;11.01;93.79;100817.28;5025208;28;20057;-68
2023/10/15 09:56:28;;;;;;;0.40;0.40;;;;;;;10.98;93.90;100817.97;5021918;28;20529;-67
2023/10/15 09:58:53;;;;;;;0.10;0.10;;;;;;;11.04;93.50;100819.25;5026445;28;20498;-68
2023/10/15 10:01:28;;;;;;;0.20;0.20;;;;;;;11.04;93.05;100820.03;5028051;28;20167;-67
2023/10/15 10:03:59;;;;;;;0.20;0.20;;;;;;;11.04;93.19;100824.66;5025257;28;20038;-69
2023/10/15 10:06:50;;;;;;;0.95;0.35;;;;;;;10.97;93.36;100822.59;5025576;28;20462;-69
2023/10/15 10:09:36;;;;;;;0.17;0.17;;;;;;;10.88;93.57;100822.78;5030228;28;20051;-69
2023/10/15 10:12:30;;;;;;;0.20;0.20;;;;;;;10.78;93.68;100817.19;5030003;28;20494;-68
2023/10/15 10:15:23;;;;;;;3.83;0.40;;;;;;;10.69;94.53;100819.28;5029167;28;20095;-69
2023/10/15 10:17:52;;;;;;;1.05;0.43;;;;;;;10.67;94.90;100803.47;5041833;28;20040;-68
2023/10/15 10:20:19;;;;;;;0.40;0.30;;;;;;;10.63;95.53;100802.59;5027041;28;20033;-67
2023/10/15 10:22:57;;;;;;;0.55;0.22;;;;;;;10.66;95.49;100799.22;5027507;28;20029;-69
2023/10/15 10:25:31;;;;;;;2.63;0.20;;;;;;;10.85;95.35;100801.16;5028813;28;20136;-67
2023/10/15 10:28:14;;;;;;;1.88;0.60;;;;;;;11.00;95.30;100804.94;5026568;28;20091;-67
2023/10/15 10:30:53;;;;;;;0.43;0.43;;;;;;;11.06;95.75;100807.00;5028177;28;20597;-69
2023/10/15 10:33:46;;;;;;;0.50;0.40;;;;;;;11.25;95.44;100803.50;5027243;28;20139;-68
2023/10/15 10:36:13;;;;;;;0.10;0.10;;;;;;;11.29;94.55;100809.75;5023298;28;20072;-69
2023/10/15 10:38:39;;;;;;;0.45;0.40;;;;;;;11.42;94.56;100803.09;5029190;28;20014;-68
2023/10/15 10:41:14;;;;;;;1.60;0.90;;;;;;;11.47;93.98;100794.72;5028030;28;20033;-67
2023/10/15 10:43:44;;;;;;;0.65;0.30;;;;;;;11.54;93.57;100797.53;5028947;28;20087;-68
2023/10/15 10:46:22;;;;;;;2.83;0.28;;;;;;;11.46;93.12;100793.94;5024119;28;20556;-68
2023/10/15 10:49:16;;;;;;;3.03;0.45;;;;;;;11.50;92.66;100802.06;5025274;28;20037;-69
2023/10/15 10:51:43;;;;;;;0.30;0.25;;;;;;;11.53;92.63;100804.88;5026906;28;20425;-68
2023/10/15 10:54:08;;;;;;;0.60;0.40;;;;;;;11.45;92.50;100791.59;5027111;28;20120;-68
2023/10/15 10:56:40;;;;;;;0.30;0.22;;;;;;;11.57;92.09;100781.44;5028620;28;20120;-68
2023/10/15 10:59:09;;;;;;;;;;;;;;;11.77;91.23;100792.97;5028337;28;20494;-67
2023/10/15 11:01:40;;;;;;;1.85;0.40;;;;;;;11.77;90.71;100799.16;5026679;28;20007;-68
2023/10/15 11:04:10;;;;;;;2.38;0.43;;;;;;;11.81;90.64;100801.91;5029488;28;20553;-68
2023/10/15 11:06:37;;;;;;;1.17;0.37;;;;;;;11.84;90.76;100795.81;5031519;28;20033;-68
2023/10/15 11:09:15;;;;;;;0.13;0.13;;;;;;;11.96;90.29;100787.53;5030729;28;20271;-68
2023/10/15 11:11:46;;;;;;;0.30;0.30;;;;;;;12.08;90.40;100798.13;5022877;28;20033;-68
2023/10/15 11:14:12;;;;;;;4.50;0.47;;;;;;;12.24;90.14;100806.09;5024317;28;20029;-68
2023/10/15 11:16:44;;;;;;;0.98;0.20;;;;;;;12.35;89.54;100793.56;5028324;28;20025;-68
2023/10/15 11:19:22;;;;;;;0.30;0.20;;;;;;;12.46;89.07;100789.09;5021881;28;20037;-68
2023/10/15 11:21:49;;;;;;;1.23;0.40;;;;;;;12.60;88.65;100789.31;5027442;28;20052;-68
2023/10/15 11:24:15;;;;;;;3.80;0.90;;;;;;;12.67;87.60;100792.09;5028467;28;20021;-69
2023/10/15 11:26:42;;;;;;;0.55;0.28;;;;;;;12.71;87.36;100792.94;5026003;28;20083;-68
2023/10/15 11:29:14;;;;;;;1.00;0.13;;;;;;;12.68;86.98;100796.34;5029207;28;20038;-68
2023/10/15 11:31:46;;;;;;;1.17;0.35;;;;;;;12.64;85.37;100804.41;5028891;28;20056;-68
2023/10/15 11:34:13;;;;;;;0.30;0.30;;;;;;;12.51;85.52;100810.38;5023041;28;20044;-67
2023/10/15 11:36:39;;;;;;;1.17;0.93;;;;;;;12.21;86.66;100802.22;5025427;28;20025;-67
2023/10/15 11:39:09;;;;;;;0.17;0.17;;;;;;;12.17;87.00;100793.28;5027926;28;20041;-67
2023/10/15 11:41:38;;;;;;;3.63;0.40;;;;;;;12.15;86.27;100798.28;5040722;28;20421;-68
2023/10/15 11:44:04;;;;;;;0.80;0.15;;;;;;;12.15;86.37;100781.28;5020935;28;20029;-67
2023/10/15 11:46:30;;;;;;;2.80;0.40;;;;;;;12.16;87.54;100794.41;5025483;28;20422;-68
2023/10/15 11:49:01;;;;;;;0.40;0.40;;;;;;;12.43;86.86;100797.91;5028096;28;20061;-68
2023/10/15 11:51:30;;;;;;;1.00;0.47;;;;;;;12.61;86.27;100798.97;5026567;28;20041;-67
2023/10/15 11:54:09;;;;;;;1.35;0.63;;;;;;;12.61;86.12;100809.78;5025571;28;20040;-67
2023/10/15 11:56:37;;;;;;;2.47;0.45;;;;;;;12.50;86.22;100815.00;5028101;28;20033;-68
2023/10/15 11:59:03;;;;;;;0.77;0.40;;;;;;;12.55;85.77;100803.13;5026111;28;20037;-68